sensor_id;sensor_type;location;lat;lon;timestamp;temperature;humidity
44215;DHT22;29884;47.450;19.124;2023-06-22T00:01:18;21.50;99.90
44215;DHT22;29884;47.450;19.124;2023-06-22T00:03:44;21.50;99.90
44215;DHT22;29884;47.450;19.124;2023-06-22T00:06:10;21.50;99.90
44215;DHT22;29884;47.450;19.124;2023-06-22T00:08:35;21.60;99.90
44215;DHT22;29884;47.450;19.124;2023-06-22T00:11:01;21.50;99.90
44215;DHT22;29884;47.450;19.124;2023-06-22T00:13:27;21.40;99.90
44215;DHT22;29884;47.450;19.124;2023-06-22T00:15:53;21.50;99.90
44215;DHT22;29884;47.450;19.124;2023-06-22T00:18:18;21.50;99.90
44215;DHT22;29884;47.450;19.124;2023-06-22T00:20:45;21.50;99.90
44215;DHT22;29884;47.450;19.124;2023-06-22T00:23:12;21.50;99.90
44215;DHT22;29884;47.450;19.124;2023-06-22T00:25:39;21.50;99.90
44215;DHT22;29884;47.450;19.124;2023-06-22T00:28:08;21.40;99.90
44215;DHT22;29884;47.450;19.124;2023-06-22T00:30:35;21.50;99.90
44215;DHT22;29884;47.450;19.124;2023-06-22T00:33:00;21.40;99.90
44215;DHT22;29884;47.450;19.124;2023-06-22T00:35:27;21.40;99.90
44215;DHT22;29884;47.450;19.124;2023-06-22T00:37:56;21.40;99.90
44215;DHT22;29884;47.450;19.124;2023-06-22T00:40:29;21.40;99.90
44215;DHT22;29884;47.450;19.124;2023-06-22T00:42:56;21.30;99.90
44215;DHT22;29884;47.450;19.124;2023-06-22T00:45:24;21.30;99.90
44215;DHT22;29884;47.450;19.124;2023-06-22T00:47:52;21.40;99.90
44215;DHT22;29884;47.450;19.124;2023-06-22T00:50:22;21.40;99.90
44215;DHT22;29884;47.450;19.124;2023-06-22T00:52:51;21.40;99.90
44215;DHT22;29884;47.450;19.124;2023-06-22T00:55:19;21.40;99.90
44215;DHT22;29884;47.450;19.124;2023-06-22T00:57:46;21.40;99.90
44215;DHT22;29884;47.450;19.124;2023-06-22T01:00:13;21.40;99.90
44215;DHT22;29884;47.450;19.124;2023-06-22T01:02:41;21.30;99.90
44215;DHT22;29884;47.450;19.124;2023-06-22T01:05:07;21.30;99.90
44215;DHT22;29884;47.450;19.124;2023-06-22T01:07:39;21.30;99.90
44215;DHT22;29884;47.450;19.124;2023-06-22T01:10:08;21.20;99.90
44215;DHT22;29884;47.450;19.124;2023-06-22T01:12:44;21.30;99.90
44215;DHT22;29884;47.450;19.124;2023-06-22T01:15:18;21.30;99.90
44215;DHT22;29884;47.450;19.124;2023-06-22T01:17:48;21.30;99.90
44215;DHT22;29884;47.450;19.124;2023-06-22T01:20:15;21.20;99.90
44215;DHT22;29884;47.450;19.124;2023-06-22T01:23:21;21.30;99.90
44215;DHT22;29884;47.450;19.124;2023-06-22T01:26:08;21.30;99.90
44215;DHT22;29884;47.450;19.124;2023-06-22T01:28:45;21.30;99.90
44215;DHT22;29884;47.450;19.124;2023-06-22T01:31:14;21.40;99.90
44215;DHT22;29884;47.450;19.124;2023-06-22T01:33:43;21.40;99.90
44215;DHT22;29884;47.450;19.124;2023-06-22T01:36:10;21.40;99.90
44215;DHT22;29884;47.450;19.124;2023-06-22T01:38:37;21.40;99.90
44215;DHT22;29884;47.450;19.124;2023-06-22T01:41:04;21.30;99.90
44215;DHT22;29884;47.450;19.124;2023-06-22T01:43:30;21.40;99.90
44215;DHT22;29884;47.450;19.124;2023-06-22T01:45:57;21.30;99.90
44215;DHT22;29884;47.450;19.124;2023-06-22T01:48:23;21.40;99.90
44215;DHT22;29884;47.450;19.124;2023-06-22T01:50:52;21.40;99.90
44215;DHT22;29884;47.450;19.124;2023-06-22T01:53:18;21.40;99.90
44215;DHT22;29884;47.450;19.124;2023-06-22T01:55:44;21.30;99.90
44215;DHT22;29884;47.450;19.124;2023-06-22T01:58:09;21.20;99.90
44215;DHT22;29884;47.450;19.124;2023-06-22T02:00:38;21.30;99.90
44215;DHT22;29884;47.450;19.124;2023-06-22T02:03:17;21.20;99.90
44215;DHT22;29884;47.450;19.124;2023-06-22T02:05:49;21.20;99.90
44215;DHT22;29884;47.450;19.124;2023-06-22T02:08:24;21.20;99.90
44215;DHT22;29884;47.450;19.124;2023-06-22T02:10:51;21.20;99.90
44215;DHT22;29884;47.450;19.124;2023-06-22T02:13:18;21.20;99.90
44215;DHT22;29884;47.450;19.124;2023-06-22T02:15:45;21.20;99.90
44215;DHT22;29884;47.450;19.124;2023-06-22T02:18:12;21.20;99.90
44215;DHT22;29884;47.450;19.124;2023-06-22T02:20:38;21.20;99.90
44215;DHT22;29884;47.450;19.124;2023-06-22T02:23:05;21.10;99.90
44215;DHT22;29884;47.450;19.124;2023-06-22T02:25:32;21.20;99.90
44215;DHT22;29884;47.450;19.124;2023-06-22T02:27:58;21.20;99.90
44215;DHT22;29884;47.450;19.124;2023-06-22T02:30:23;21.20;99.90
44215;DHT22;29884;47.450;19.124;2023-06-22T02:33:01;21.20;99.90
44215;DHT22;29884;47.450;19.124;2023-06-22T02:35:28;21.30;99.90
44215;DHT22;29884;47.450;19.124;2023-06-22T02:38:00;21.20;99.90
44215;DHT22;29884;47.450;19.124;2023-06-22T02:40:26;21.30;99.90
44215;DHT22;29884;47.450;19.124;2023-06-22T02:42:52;21.20;99.90
44215;DHT22;29884;47.450;19.124;2023-06-22T02:45:18;21.20;99.90
44215;DHT22;29884;47.450;19.124;2023-06-22T02:47:44;21.20;99.90
44215;DHT22;29884;47.450;19.124;2023-06-22T02:50:10;21.30;99.90
44215;DHT22;29884;47.450;19.124;2023-06-22T02:52:36;21.30;99.90
44215;DHT22;29884;47.450;19.124;2023-06-22T02:55:01;21.20;99.90
44215;DHT22;29884;47.450;19.124;2023-06-22T02:57:27;21.20;99.90
44215;DHT22;29884;47.450;19.124;2023-06-22T02:59:53;21.20;99.90
44215;DHT22;29884;47.450;19.124;2023-06-22T03:02:20;21.20;99.90
44215;DHT22;29884;47.450;19.124;2023-06-22T03:04:47;21.20;99.90
44215;DHT22;29884;47.450;19.124;2023-06-22T03:07:14;21.10;99.90
44215;DHT22;29884;47.450;19.124;2023-06-22T03:09:40;21.10;99.90
44215;DHT22;29884;47.450;19.124;2023-06-22T03:12:07;21.10;99.90
44215;DHT22;29884;47.450;19.124;2023-06-22T03:14:33;21.10;99.90
44215;DHT22;29884;47.450;19.124;2023-06-22T03:16:59;21.10;99.90
44215;DHT22;29884;47.450;19.124;2023-06-22T03:19:29;21.10;99.90
44215;DHT22;29884;47.450;19.124;2023-06-22T03:21:57;21.20;99.90
44215;DHT22;29884;47.450;19.124;2023-06-22T03:24:23;21.30;99.90
44215;DHT22;29884;47.450;19.124;2023-06-22T03:26:49;21.20;99.90
44215;DHT22;29884;47.450;19.124;2023-06-22T03:29:14;21.20;99.90
44215;DHT22;29884;47.450;19.124;2023-06-22T03:31:41;21.20;99.90
44215;DHT22;29884;47.450;19.124;2023-06-22T03:34:06;21.30;99.90
44215;DHT22;29884;47.450;19.124;2023-06-22T03:36:32;21.30;99.90
44215;DHT22;29884;47.450;19.124;2023-06-22T03:38:58;21.30;99.90
44215;DHT22;29884;47.450;19.124;2023-06-22T03:41:24;21.30;99.90
44215;DHT22;29884;47.450;19.124;2023-06-22T03:43:50;21.40;99.90
44215;DHT22;29884;47.450;19.124;2023-06-22T03:46:16;21.30;99.90
44215;DHT22;29884;47.450;19.124;2023-06-22T03:48:42;21.40;99.90
44215;DHT22;29884;47.450;19.124;2023-06-22T03:51:07;21.40;99.90
44215;DHT22;29884;47.450;19.124;2023-06-22T03:53:34;21.40;99.90
44215;DHT22;29884;47.450;19.124;2023-06-22T03:55:59;21.40;99.90
44215;DHT22;29884;47.450;19.124;2023-06-22T03:58:25;21.40;99.90
44215;DHT22;29884;47.450;19.124;2023-06-22T04:00:51;21.40;99.90
44215;DHT22;29884;47.450;19.124;2023-06-22T04:03:18;21.40;99.90
44215;DHT22;29884;47.450;19.124;2023-06-22T04:05:45;21.40;99.90
44215;DHT22;29884;47.450;19.124;2023-06-22T04:08:12;21.50;99.90
44215;DHT22;29884;47.450;19.124;2023-06-22T04:10:38;21.60;99.90
44215;DHT22;29884;47.450;19.124;2023-06-22T04:13:04;21.60;99.90
44215;DHT22;29884;47.450;19.124;2023-06-22T04:15:29;21.60;99.90
44215;DHT22;29884;47.450;19.124;2023-06-22T04:17:55;21.70;99.90
44215;DHT22;29884;47.450;19.124;2023-06-22T04:20:22;21.70;99.90
44215;DHT22;29884;47.450;19.124;2023-06-22T04:22:47;21.70;99.90
44215;DHT22;29884;47.450;19.124;2023-06-22T04:25:13;21.70;99.90
44215;DHT22;29884;47.450;19.124;2023-06-22T04:27:39;21.70;99.90
44215;DHT22;29884;47.450;19.124;2023-06-22T04:30:08;21.80;99.90
44215;DHT22;29884;47.450;19.124;2023-06-22T04:32:37;21.80;99.90
44215;DHT22;29884;47.450;19.124;2023-06-22T04:35:03;21.80;99.90
44215;DHT22;29884;47.450;19.124;2023-06-22T04:37:30;21.90;99.90
44215;DHT22;29884;47.450;19.124;2023-06-22T04:39:56;21.90;99.90
44215;DHT22;29884;47.450;19.124;2023-06-22T04:42:22;21.90;99.90
44215;DHT22;29884;47.450;19.124;2023-06-22T04:44:48;22.00;99.90
44215;DHT22;29884;47.450;19.124;2023-06-22T04:47:13;22.00;99.90
44215;DHT22;29884;47.450;19.124;2023-06-22T04:49:39;22.10;99.90
44215;DHT22;29884;47.450;19.124;2023-06-22T04:52:09;22.10;99.90
44215;DHT22;29884;47.450;19.124;2023-06-22T04:54:36;22.10;99.90
44215;DHT22;29884;47.450;19.124;2023-06-22T04:57:04;22.20;99.90
44215;DHT22;29884;47.450;19.124;2023-06-22T04:59:31;22.20;99.90
44215;DHT22;29884;47.450;19.124;2023-06-22T05:01:58;22.20;99.90
44215;DHT22;29884;47.450;19.124;2023-06-22T05:04:25;22.20;99.90
44215;DHT22;29884;47.450;19.124;2023-06-22T05:06:52;22.20;99.90
44215;DHT22;29884;47.450;19.124;2023-06-22T05:09:19;22.30;99.90
44215;DHT22;29884;47.450;19.124;2023-06-22T05:11:45;22.30;99.90
44215;DHT22;29884;47.450;19.124;2023-06-22T05:14:11;22.40;99.90
44215;DHT22;29884;47.450;19.124;2023-06-22T05:16:37;22.40;99.90
44215;DHT22;29884;47.450;19.124;2023-06-22T05:19:03;22.50;99.90
44215;DHT22;29884;47.450;19.124;2023-06-22T05:21:30;22.50;99.90
44215;DHT22;29884;47.450;19.124;2023-06-22T05:23:56;22.50;99.90
44215;DHT22;29884;47.450;19.124;2023-06-22T05:26:27;22.50;99.90
44215;DHT22;29884;47.450;19.124;2023-06-22T05:28:53;22.50;99.90
44215;DHT22;29884;47.450;19.124;2023-06-22T05:31:20;22.60;99.90
44215;DHT22;29884;47.450;19.124;2023-06-22T05:33:46;22.70;99.90
44215;DHT22;29884;47.450;19.124;2023-06-22T05:36:13;22.70;99.90
44215;DHT22;29884;47.450;19.124;2023-06-22T05:38:39;22.80;99.90
44215;DHT22;29884;47.450;19.124;2023-06-22T05:41:05;23.00;99.90
44215;DHT22;29884;47.450;19.124;2023-06-22T05:43:31;23.00;99.90
44215;DHT22;29884;47.450;19.124;2023-06-22T05:45:57;23.00;99.90
44215;DHT22;29884;47.450;19.124;2023-06-22T05:48:24;23.10;99.90
44215;DHT22;29884;47.450;19.124;2023-06-22T05:50:49;23.20;99.90
44215;DHT22;29884;47.450;19.124;2023-06-22T05:53:15;23.30;99.90
44215;DHT22;29884;47.450;19.124;2023-06-22T05:55:44;23.40;99.90
44215;DHT22;29884;47.450;19.124;2023-06-22T05:58:14;23.40;99.90
44215;DHT22;29884;47.450;19.124;2023-06-22T06:00:40;23.40;99.90
44215;DHT22;29884;47.450;19.124;2023-06-22T06:03:07;23.50;99.90
44215;DHT22;29884;47.450;19.124;2023-06-22T06:05:34;23.50;99.90
44215;DHT22;29884;47.450;19.124;2023-06-22T06:08:01;23.60;99.90
44215;DHT22;29884;47.450;19.124;2023-06-22T06:10:27;23.60;99.90
44215;DHT22;29884;47.450;19.124;2023-06-22T06:12:55;23.70;99.90
44215;DHT22;29884;47.450;19.124;2023-06-22T06:15:21;23.80;99.90
44215;DHT22;29884;47.450;19.124;2023-06-22T06:17:47;23.80;99.90
44215;DHT22;29884;47.450;19.124;2023-06-22T06:20:14;23.90;99.90
44215;DHT22;29884;47.450;19.124;2023-06-22T06:22:39;24.00;99.90
44215;DHT22;29884;47.450;19.124;2023-06-22T06:25:05;24.00;99.90
44215;DHT22;29884;47.450;19.124;2023-06-22T06:27:31;24.00;99.90
44215;DHT22;29884;47.450;19.124;2023-06-22T06:29:57;24.10;99.90
44215;DHT22;29884;47.450;19.124;2023-06-22T06:32:23;24.10;99.90
44215;DHT22;29884;47.450;19.124;2023-06-22T06:34:48;24.20;99.90
44215;DHT22;29884;47.450;19.124;2023-06-22T06:37:14;24.30;99.90
44215;DHT22;29884;47.450;19.124;2023-06-22T06:39:41;24.50;99.90
44215;DHT22;29884;47.450;19.124;2023-06-22T06:42:07;24.50;99.90
44215;DHT22;29884;47.450;19.124;2023-06-22T06:44:32;24.50;99.90
44215;DHT22;29884;47.450;19.124;2023-06-22T06:46:58;24.50;99.90
44215;DHT22;29884;47.450;19.124;2023-06-22T06:49:24;24.60;99.90
44215;DHT22;29884;47.450;19.124;2023-06-22T06:51:50;24.80;99.90
44215;DHT22;29884;47.450;19.124;2023-06-22T06:54:16;25.10;99.90
44215;DHT22;29884;47.450;19.124;2023-06-22T06:56:41;25.30;99.90
44215;DHT22;29884;47.450;19.124;2023-06-22T06:59:10;25.30;99.90
44215;DHT22;29884;47.450;19.124;2023-06-22T07:01:35;25.40;99.90
44215;DHT22;29884;47.450;19.124;2023-06-22T07:04:01;25.50;99.90
44215;DHT22;29884;47.450;19.124;2023-06-22T07:06:27;25.50;99.90
44215;DHT22;29884;47.450;19.124;2023-06-22T07:08:55;25.60;99.90
44215;DHT22;29884;47.450;19.124;2023-06-22T07:11:21;25.90;99.90
44215;DHT22;29884;47.450;19.124;2023-06-22T07:13:46;26.00;99.90
44215;DHT22;29884;47.450;19.124;2023-06-22T07:16:12;26.10;99.90
44215;DHT22;29884;47.450;19.124;2023-06-22T07:18:40;26.10;99.90
44215;DHT22;29884;47.450;19.124;2023-06-22T07:21:05;26.20;99.90
44215;DHT22;29884;47.450;19.124;2023-06-22T07:23:32;26.30;99.90
44215;DHT22;29884;47.450;19.124;2023-06-22T07:25:58;26.40;99.90
44215;DHT22;29884;47.450;19.124;2023-06-22T07:28:27;26.30;99.90
44215;DHT22;29884;47.450;19.124;2023-06-22T07:30:53;26.30;99.90
44215;DHT22;29884;47.450;19.124;2023-06-22T07:33:19;26.20;99.90
44215;DHT22;29884;47.450;19.124;2023-06-22T07:35:45;26.30;99.90
44215;DHT22;29884;47.450;19.124;2023-06-22T07:38:12;26.30;99.90
44215;DHT22;29884;47.450;19.124;2023-06-22T07:40:38;26.30;99.90
44215;DHT22;29884;47.450;19.124;2023-06-22T07:43:03;26.60;99.90
44215;DHT22;29884;47.450;19.124;2023-06-22T07:45:29;26.70;99.90
44215;DHT22;29884;47.450;19.124;2023-06-22T07:47:55;26.90;99.90
44215;DHT22;29884;47.450;19.124;2023-06-22T07:50:21;26.80;99.90
44215;DHT22;29884;47.450;19.124;2023-06-22T07:52:47;26.60;99.90
44215;DHT22;29884;47.450;19.124;2023-06-22T07:55:13;26.90;99.90
44215;DHT22;29884;47.450;19.124;2023-06-22T07:57:39;27.30;99.90
44215;DHT22;29884;47.450;19.124;2023-06-22T08:00:07;27.20;99.90
44215;DHT22;29884;47.450;19.124;2023-06-22T08:02:40;27.40;99.90
44215;DHT22;29884;47.450;19.124;2023-06-22T08:05:09;27.60;99.90
44215;DHT22;29884;47.450;19.124;2023-06-22T08:07:36;27.40;99.90
44215;DHT22;29884;47.450;19.124;2023-06-22T08:10:06;27.50;99.90
44215;DHT22;29884;47.450;19.124;2023-06-22T08:12:32;27.60;99.90
44215;DHT22;29884;47.450;19.124;2023-06-22T08:14:58;27.80;99.90
44215;DHT22;29884;47.450;19.124;2023-06-22T08:17:24;27.90;99.90
44215;DHT22;29884;47.450;19.124;2023-06-22T08:19:50;28.00;99.90
44215;DHT22;29884;47.450;19.124;2023-06-22T08:22:16;27.70;99.90
44215;DHT22;29884;47.450;19.124;2023-06-22T08:24:42;28.00;99.90
44215;DHT22;29884;47.450;19.124;2023-06-22T08:27:08;28.20;99.90
44215;DHT22;29884;47.450;19.124;2023-06-22T08:29:41;28.20;99.90
44215;DHT22;29884;47.450;19.124;2023-06-22T08:32:11;28.10;99.90
44215;DHT22;29884;47.450;19.124;2023-06-22T08:34:37;28.40;99.90
44215;DHT22;29884;47.450;19.124;2023-06-22T08:37:08;28.40;99.90
44215;DHT22;29884;47.450;19.124;2023-06-22T08:39:34;28.50;99.90
44215;DHT22;29884;47.450;19.124;2023-06-22T08:42:00;28.70;99.90
44215;DHT22;29884;47.450;19.124;2023-06-22T08:44:26;29.00;99.90
44215;DHT22;29884;47.450;19.124;2023-06-22T08:46:52;29.20;99.90
44215;DHT22;29884;47.450;19.124;2023-06-22T08:49:17;29.40;99.90
44215;DHT22;29884;47.450;19.124;2023-06-22T08:51:43;29.30;99.90
44215;DHT22;29884;47.450;19.124;2023-06-22T08:54:11;29.50;99.90
44215;DHT22;29884;47.450;19.124;2023-06-22T08:56:36;29.50;99.90
44215;DHT22;29884;47.450;19.124;2023-06-22T08:59:02;29.70;99.90
44215;DHT22;29884;47.450;19.124;2023-06-22T09:01:28;29.90;99.90
44215;DHT22;29884;47.450;19.124;2023-06-22T09:03:54;30.20;99.90
44215;DHT22;29884;47.450;19.124;2023-06-22T09:06:23;30.30;99.90
44215;DHT22;29884;47.450;19.124;2023-06-22T09:08:49;30.50;99.50
44215;DHT22;29884;47.450;19.124;2023-06-22T09:11:15;30.40;99.50
44215;DHT22;29884;47.450;19.124;2023-06-22T09:13:41;30.60;98.40
44215;DHT22;29884;47.450;19.124;2023-06-22T09:16:07;30.60;98.70
44215;DHT22;29884;47.450;19.124;2023-06-22T09:18:36;30.40;96.20
44215;DHT22;29884;47.450;19.124;2023-06-22T09:21:02;30.50;96.20
44215;DHT22;29884;47.450;19.124;2023-06-22T09:23:28;30.70;97.60
44215;DHT22;29884;47.450;19.124;2023-06-22T09:25:54;31.00;96.60
44215;DHT22;29884;47.450;19.124;2023-06-22T09:28:19;30.90;96.90
44215;DHT22;29884;47.450;19.124;2023-06-22T09:30:45;30.90;96.90
44215;DHT22;29884;47.450;19.124;2023-06-22T09:33:11;31.10;97.00
44215;DHT22;29884;47.450;19.124;2023-06-22T09:35:37;31.20;95.60
44215;DHT22;29884;47.450;19.124;2023-06-22T09:38:02;30.90;95.00
44215;DHT22;29884;47.450;19.124;2023-06-22T09:40:28;31.30;95.10
44215;DHT22;29884;47.450;19.124;2023-06-22T09:42:54;31.20;93.30
44215;DHT22;29884;47.450;19.124;2023-06-22T09:45:19;30.90;93.40
44215;DHT22;29884;47.450;19.124;2023-06-22T09:47:45;31.00;95.10
44215;DHT22;29884;47.450;19.124;2023-06-22T09:50:11;31.40;94.70
44215;DHT22;29884;47.450;19.124;2023-06-22T09:52:37;31.40;93.10
44215;DHT22;29884;47.450;19.124;2023-06-22T09:55:03;31.90;93.60
44215;DHT22;29884;47.450;19.124;2023-06-22T09:57:29;31.70;93.40
44215;DHT22;29884;47.450;19.124;2023-06-22T09:59:55;31.70;92.60
44215;DHT22;29884;47.450;19.124;2023-06-22T10:02:21;31.80;93.60
44215;DHT22;29884;47.450;19.124;2023-06-22T10:04:48;31.80;92.20
44215;DHT22;29884;47.450;19.124;2023-06-22T10:07:13;31.70;92.40
44215;DHT22;29884;47.450;19.124;2023-06-22T10:09:39;31.70;92.30
44215;DHT22;29884;47.450;19.124;2023-06-22T10:12:05;31.70;91.80
44215;DHT22;29884;47.450;19.124;2023-06-22T10:14:31;31.90;93.40
44215;DHT22;29884;47.450;19.124;2023-06-22T10:16:57;32.20;91.40
44215;DHT22;29884;47.450;19.124;2023-06-22T10:19:22;32.10;90.20
44215;DHT22;29884;47.450;19.124;2023-06-22T10:21:48;32.20;90.00
44215;DHT22;29884;47.450;19.124;2023-06-22T10:24:14;32.20;92.80
44215;DHT22;29884;47.450;19.124;2023-06-22T10:26:39;32.30;91.70
44215;DHT22;29884;47.450;19.124;2023-06-22T10:29:05;32.50;90.70
44215;DHT22;29884;47.450;19.124;2023-06-22T10:31:31;32.60;90.50
44215;DHT22;29884;47.450;19.124;2023-06-22T10:33:57;32.60;88.90
44215;DHT22;29884;47.450;19.124;2023-06-22T10:36:22;32.80;89.20
44215;DHT22;29884;47.450;19.124;2023-06-22T10:38:49;32.80;88.50
44215;DHT22;29884;47.450;19.124;2023-06-22T10:41:14;32.80;89.20
44215;DHT22;29884;47.450;19.124;2023-06-22T10:43:41;32.80;88.30
44215;DHT22;29884;47.450;19.124;2023-06-22T10:46:07;33.10;90.50
44215;DHT22;29884;47.450;19.124;2023-06-22T10:48:33;32.90;89.20
44215;DHT22;29884;47.450;19.124;2023-06-22T10:50:59;32.60;87.40
44215;DHT22;29884;47.450;19.124;2023-06-22T10:53:24;32.40;86.90
44215;DHT22;29884;47.450;19.124;2023-06-22T10:55:50;32.00;89.00
44215;DHT22;29884;47.450;19.124;2023-06-22T10:58:18;31.70;90.80
44215;DHT22;29884;47.450;19.124;2023-06-22T11:00:44;31.70;92.80
44215;DHT22;29884;47.450;19.124;2023-06-22T11:03:10;31.90;90.70
44215;DHT22;29884;47.450;19.124;2023-06-22T11:05:36;31.80;89.20
44215;DHT22;29884;47.450;19.124;2023-06-22T11:08:02;31.60;90.80
44215;DHT22;29884;47.450;19.124;2023-06-22T11:10:27;32.00;91.10
44215;DHT22;29884;47.450;19.124;2023-06-22T11:12:53;32.30;89.70
44215;DHT22;29884;47.450;19.124;2023-06-22T11:15:20;32.70;90.60
44215;DHT22;29884;47.450;19.124;2023-06-22T11:17:46;32.70;85.30
44215;DHT22;29884;47.450;19.124;2023-06-22T11:20:12;32.30;85.50
44215;DHT22;29884;47.450;19.124;2023-06-22T11:22:39;31.90;88.00
44215;DHT22;29884;47.450;19.124;2023-06-22T11:25:06;31.70;89.60
44215;DHT22;29884;47.450;19.124;2023-06-22T11:27:32;31.70;89.30
44215;DHT22;29884;47.450;19.124;2023-06-22T11:29:58;31.70;89.90
44215;DHT22;29884;47.450;19.124;2023-06-22T11:32:24;31.90;89.20
44215;DHT22;29884;47.450;19.124;2023-06-22T11:34:49;32.10;87.80
44215;DHT22;29884;47.450;19.124;2023-06-22T11:37:15;31.90;89.20
44215;DHT22;29884;47.450;19.124;2023-06-22T11:39:42;31.80;88.60
44215;DHT22;29884;47.450;19.124;2023-06-22T11:42:08;31.90;86.50
44215;DHT22;29884;47.450;19.124;2023-06-22T11:44:34;31.80;89.30
44215;DHT22;29884;47.450;19.124;2023-06-22T11:47:00;31.90;89.80
44215;DHT22;29884;47.450;19.124;2023-06-22T11:49:29;32.20;87.20
44215;DHT22;29884;47.450;19.124;2023-06-22T11:51:55;32.60;86.10
44215;DHT22;29884;47.450;19.124;2023-06-22T11:54:20;32.90;83.60
44215;DHT22;29884;47.450;19.124;2023-06-22T11:56:46;33.00;82.50
44215;DHT22;29884;47.450;19.124;2023-06-22T11:59:12;33.40;80.10
44215;DHT22;29884;47.450;19.124;2023-06-22T12:01:38;33.40;78.40
44215;DHT22;29884;47.450;19.124;2023-06-22T12:04:04;33.40;79.00
44215;DHT22;29884;47.450;19.124;2023-06-22T12:06:32;33.60;78.40
44215;DHT22;29884;47.450;19.124;2023-06-22T12:08:58;33.60;78.90
44215;DHT22;29884;47.450;19.124;2023-06-22T12:11:24;33.50;78.60
44215;DHT22;29884;47.450;19.124;2023-06-22T12:13:50;33.70;80.50
44215;DHT22;29884;47.450;19.124;2023-06-22T12:16:15;34.10;79.00
44215;DHT22;29884;47.450;19.124;2023-06-22T12:18:41;34.10;75.90
44215;DHT22;29884;47.450;19.124;2023-06-22T12:21:07;34.20;74.60
44215;DHT22;29884;47.450;19.124;2023-06-22T12:23:33;34.10;73.50
44215;DHT22;29884;47.450;19.124;2023-06-22T12:25:59;34.00;75.70
44215;DHT22;29884;47.450;19.124;2023-06-22T12:28:25;34.20;74.30
44215;DHT22;29884;47.450;19.124;2023-06-22T12:30:51;34.20;73.20
44215;DHT22;29884;47.450;19.124;2023-06-22T12:33:17;33.90;72.80
44215;DHT22;29884;47.450;19.124;2023-06-22T12:35:43;34.10;75.00
44215;DHT22;29884;47.450;19.124;2023-06-22T12:38:10;34.30;74.00
44215;DHT22;29884;47.450;19.124;2023-06-22T12:40:36;34.30;73.80
44215;DHT22;29884;47.450;19.124;2023-06-22T12:43:02;34.30;73.70
44215;DHT22;29884;47.450;19.124;2023-06-22T12:45:28;34.30;73.50
44215;DHT22;29884;47.450;19.124;2023-06-22T12:47:57;33.90;72.90
44215;DHT22;29884;47.450;19.124;2023-06-22T12:50:23;34.10;73.20
44215;DHT22;29884;47.450;19.124;2023-06-22T12:52:48;34.00;71.30
44215;DHT22;29884;47.450;19.124;2023-06-22T12:55:14;34.30;70.30
44215;DHT22;29884;47.450;19.124;2023-06-22T12:57:40;34.20;69.60
44215;DHT22;29884;47.450;19.124;2023-06-22T13:00:06;33.90;72.10
44215;DHT22;29884;47.450;19.124;2023-06-22T13:02:35;33.80;70.30
44215;DHT22;29884;47.450;19.124;2023-06-22T13:05:01;33.60;71.10
44215;DHT22;29884;47.450;19.124;2023-06-22T13:07:27;33.00;71.00
44215;DHT22;29884;47.450;19.124;2023-06-22T13:09:53;32.70;71.90
44215;DHT22;29884;47.450;19.124;2023-06-22T13:12:19;32.60;71.40
44215;DHT22;29884;47.450;19.124;2023-06-22T13:14:45;32.30;73.80
44215;DHT22;29884;47.450;19.124;2023-06-22T13:17:12;32.20;76.90
44215;DHT22;29884;47.450;19.124;2023-06-22T13:19:39;32.30;77.40
44215;DHT22;29884;47.450;19.124;2023-06-22T13:22:05;32.20;79.60
44215;DHT22;29884;47.450;19.124;2023-06-22T13:24:32;32.10;79.40
44215;DHT22;29884;47.450;19.124;2023-06-22T13:26:58;32.10;80.10
44215;DHT22;29884;47.450;19.124;2023-06-22T13:29:24;32.10;78.60
44215;DHT22;29884;47.450;19.124;2023-06-22T13:31:49;32.30;78.60
44215;DHT22;29884;47.450;19.124;2023-06-22T13:34:15;32.70;78.20
44215;DHT22;29884;47.450;19.124;2023-06-22T13:36:41;33.30;75.20
44215;DHT22;29884;47.450;19.124;2023-06-22T13:39:06;33.40;73.10
44215;DHT22;29884;47.450;19.124;2023-06-22T13:41:32;33.30;73.20
44215;DHT22;29884;47.450;19.124;2023-06-22T13:43:58;33.20;74.80
44215;DHT22;29884;47.450;19.124;2023-06-22T13:46:23;33.30;74.10
44215;DHT22;29884;47.450;19.124;2023-06-22T13:48:49;33.50;73.00
44215;DHT22;29884;47.450;19.124;2023-06-22T13:51:15;33.80;71.20
44215;DHT22;29884;47.450;19.124;2023-06-22T13:53:40;33.80;71.00
44215;DHT22;29884;47.450;19.124;2023-06-22T13:56:06;33.70;69.60
44215;DHT22;29884;47.450;19.124;2023-06-22T13:58:32;33.60;71.80
44215;DHT22;29884;47.450;19.124;2023-06-22T14:00:58;33.90;71.40
44215;DHT22;29884;47.450;19.124;2023-06-22T14:03:23;33.90;68.80
44215;DHT22;29884;47.450;19.124;2023-06-22T14:05:49;33.90;69.30
44215;DHT22;29884;47.450;19.124;2023-06-22T14:08:15;33.90;68.50
44215;DHT22;29884;47.450;19.124;2023-06-22T14:10:41;33.70;71.50
44215;DHT22;29884;47.450;19.124;2023-06-22T14:13:06;33.80;70.20
44215;DHT22;29884;47.450;19.124;2023-06-22T14:15:32;33.90;69.40
44215;DHT22;29884;47.450;19.124;2023-06-22T14:17:58;34.10;68.60
44215;DHT22;29884;47.450;19.124;2023-06-22T14:20:23;33.90;68.10
44215;DHT22;29884;47.450;19.124;2023-06-22T14:22:49;33.90;69.00
44215;DHT22;29884;47.450;19.124;2023-06-22T14:25:15;33.70;68.10
44215;DHT22;29884;47.450;19.124;2023-06-22T14:27:40;33.70;68.40
44215;DHT22;29884;47.450;19.124;2023-06-22T14:30:06;33.70;68.70
44215;DHT22;29884;47.450;19.124;2023-06-22T14:32:32;33.70;67.80
44215;DHT22;29884;47.450;19.124;2023-06-22T14:34:58;33.80;67.50
44215;DHT22;29884;47.450;19.124;2023-06-22T14:37:24;33.70;67.90
44215;DHT22;29884;47.450;19.124;2023-06-22T14:39:49;33.80;68.90
44215;DHT22;29884;47.450;19.124;2023-06-22T14:42:15;33.80;68.20
44215;DHT22;29884;47.450;19.124;2023-06-22T14:44:41;33.70;69.90
44215;DHT22;29884;47.450;19.124;2023-06-22T14:47:07;33.60;69.30
44215;DHT22;29884;47.450;19.124;2023-06-22T14:49:32;33.60;70.00
44215;DHT22;29884;47.450;19.124;2023-06-22T14:51:58;33.70;68.40
44215;DHT22;29884;47.450;19.124;2023-06-22T14:54:24;33.80;69.20
44215;DHT22;29884;47.450;19.124;2023-06-22T14:56:50;33.80;68.90
44215;DHT22;29884;47.450;19.124;2023-06-22T14:59:16;33.90;68.90
44215;DHT22;29884;47.450;19.124;2023-06-22T15:01:42;33.80;68.20
44215;DHT22;29884;47.450;19.124;2023-06-22T15:04:07;33.60;68.70
44215;DHT22;29884;47.450;19.124;2023-06-22T15:06:33;33.50;68.90
44215;DHT22;29884;47.450;19.124;2023-06-22T15:08:59;33.40;69.40
44215;DHT22;29884;47.450;19.124;2023-06-22T15:11:24;33.40;70.60